Time;durP1;ratioP1;P1;durP2;ratioP2;P2;SDS_P1;SDS_P2;PMS_P1;PMS_P2;Temp;Humidity;BMP_temperature;BMP_pressure;BME280_temperature;BME280_humidity;BME280_pressure;Samples;Min_cycle;Max_cycle;Signal;HPM_P1;HPM_P2
2022/08/11 00:02:13;;;;;;;8.23;4.32;;;17.10;99.90;;;;;;4714033;30;20084;-88
2022/08/11 00:04:40;;;;;;;6.90;4.55;;;17.10;99.90;;;;;;4701046;30;20096;-88
2022/08/11 00:07:08;;;;;;;11.68;5.25;;;17.10;99.90;;;;;;4714143;30;20088;-88
2022/08/11 00:09:37;;;;;;;11.85;4.70;;;17.00;99.90;;;;;;4714707;30;20063;-88
2022/08/11 00:12:11;;;;;;;10.27;5.53;;;17.00;99.90;;;;;;4714077;30;20051;-88
2022/08/11 00:14:37;;;;;;;9.10;5.85;;;17.00;99.90;;;;;;4728863;30;20435;-88
2022/08/11 00:17:06;;;;;;;9.00;5.93;;;16.90;99.90;;;;;;4714306;30;20052;-89
2022/08/11 00:19:36;;;;;;;11.43;5.45;;;16.90;99.90;;;;;;4700617;30;20096;-89
2022/08/11 00:22:05;;;;;;;10.73;6.28;;;16.90;99.90;;;;;;4728585;30;20053;-88
2022/08/11 00:24:37;;;;;;;9.43;6.63;;;16.90;99.90;;;;;;4729564;30;20061;-88
2022/08/11 00:27:03;;;;;;;10.45;6.70;;;16.80;99.90;;;;;;4714470;30;20053;-88
2022/08/11 00:29:30;;;;;;;13.82;8.43;;;16.80;99.90;;;;;;4714296;30;20049;-89
2022/08/11 00:32:00;;;;;;;10.32;6.97;;;16.80;99.90;;;;;;4729234;30;20060;-88
2022/08/11 00:34:28;;;;;;;12.27;7.25;;;16.80;99.90;;;;;;4728820;30;20052;-89
2022/08/11 00:37:00;;;;;;;8.65;6.93;;;16.80;99.90;;;;;;4713692;30;20497;-87
2022/08/11 00:39:27;;;;;;;13.68;7.22;;;16.70;99.90;;;;;;4699657;30;20111;-88
2022/08/11 00:42:22;;;;;;;14.15;7.40;;;16.70;99.90;;;;;;4713677;30;20076;-87
2022/08/11 00:45:13;;;;;;;11.48;6.68;;;16.70;99.90;;;;;;4714850;30;20122;-88
2022/08/11 00:47:48;;;;;;;10.98;7.25;;;16.70;99.90;;;;;;4714546;30;20052;-88
2022/08/11 00:50:35;;;;;;;14.02;7.07;;;16.70;99.90;;;;;;4713711;30;20422;-88
2022/08/11 00:53:22;;;;;;;10.93;7.18;;;16.70;99.90;;;;;;4714318;30;20088;-88
2022/08/11 00:56:27;;;;;;;12.00;6.80;;;16.60;99.90;;;;;;4685037;30;20110;-88
2022/08/11 00:59:12;;;;;;;8.95;6.45;;;16.60;99.90;;;;;;4717139;30;20057;-88
2022/08/11 01:01:55;;;;;;;10.60;7.30;;;16.60;99.90;;;;;;4717370;30;20045;-88
2022/08/11 01:04:40;;;;;;;12.43;7.45;;;16.50;99.90;;;;;;4723027;30;20093;-88
2022/08/11 01:07:40;;;;;;;13.20;6.97;;;16.60;99.90;;;;;;4734397;30;20048;-88
2022/08/11 01:10:32;;;;;;;10.60;7.13;;;16.50;99.90;;;;;;4748585;30;20051;-88
2022/08/11 01:13:17;;;;;;;12.35;7.00;;;16.50;99.90;;;;;;4734619;30;20066;-88
2022/08/11 01:16:27;;;;;;;11.30;6.70;;;16.40;99.90;;;;;;4719599;30;20159;-88
2022/08/11 01:19:20;;;;;;;10.30;7.45;;;16.40;99.90;;;;;;4719212;30;20052;-88
2022/08/11 01:22:07;;;;;;;11.52;7.22;;;16.40;99.90;;;;;;4720230;30;20055;-88
2022/08/11 01:25:09;;;;;;;11.65;6.43;;;16.40;99.90;;;;;;4734492;30;20148;-88
2022/08/11 01:27:57;;;;;;;11.18;6.38;;;16.40;99.90;;;;;;4734343;30;20056;-88
2022/08/11 01:30:42;;;;;;;10.95;7.13;;;16.40;99.90;;;;;;4734290;30;20100;-88
2022/08/11 01:33:35;;;;;;;12.05;7.22;;;16.30;99.90;;;;;;4719158;30;20051;-89
2022/08/11 01:36:11;;;;;;;11.60;7.45;;;16.30;99.90;;;;;;4734679;30;20052;-88
2022/08/11 01:39:06;;;;;;;9.30;6.80;;;16.30;99.90;;;;;;4733450;30;20100;-88
2022/08/11 01:45:10;;;;;;;11.10;7.57;;;16.20;99.90;;;;;;4734651;30;20056;-88
2022/08/11 01:47:52;;;;;;;16.20;7.70;;;16.20;99.90;;;;;;4719188;30;20516;-88
2022/08/11 01:50:27;;;;;;;11.18;7.65;;;16.20;99.90;;;;;;4733843;30;20056;-87
2022/08/11 01:53:03;;;;;;;15.52;8.18;;;16.20;99.90;;;;;;4733458;30;20060;-87
2022/08/11 01:55:50;;;;;;;12.68;8.10;;;16.20;99.90;;;;;;4716673;30;20060;-88
2022/08/11 01:58:30;;;;;;;12.07;7.78;;;16.20;99.90;;;;;;4730933;30;20151;-88
2022/08/11 02:01:09;;;;;;;12.13;7.50;;;16.20;99.90;;;;;;4701442;30;20057;-88
2022/08/11 02:03:53;;;;;;;10.25;6.72;;;16.20;99.90;;;;;;4702031;30;20136;-88
2022/08/11 02:06:53;;;;;;;10.05;6.40;;;16.20;99.90;;;;;;4700813;30;20490;-88
2022/08/11 02:09:49;;;;;;;5.00;3.40;;;16.10;99.90;;;;;;4729455;30;20084;-88
2022/08/11 02:12:26;;;;;;;3.70;1.40;;;16.10;99.90;;;;;;4701556;30;20487;-87
2022/08/11 02:15:02;;;;;;;5.13;2.53;;;16.00;99.90;;;;;;4716021;30;20057;-87
2022/08/11 02:17:49;;;;;;;3.40;1.65;;;15.80;99.90;;;;;;4715753;30;20120;-87
2022/08/11 02:26:07;;;;;;;6.28;4.93;;;15.60;99.90;;;;;;4730734;30;20057;-87
2022/08/11 02:28:48;;;;;;;13.82;6.78;;;15.60;99.90;;;;;;4729614;30;20106;-87
2022/08/11 02:34:23;;;;;;;11.73;7.13;;;15.60;99.90;;;;;;4730686;30;20049;-88
2022/08/11 02:37:15;;;;;;;13.40;6.93;;;15.60;99.90;;;;;;4716129;30;20567;-88
2022/08/11 02:40:05;;;;;;;8.60;5.88;;;15.60;99.90;;;;;;4715961;30;20068;-88
2022/08/11 02:42:43;;;;;;;5.10;2.75;;;15.60;99.90;;;;;;4714587;30;20139;-88
2022/08/11 02:45:30;;;;;;;3.28;2.05;;;15.60;99.90;;;;;;4715497;30;20065;-87
2022/08/11 02:50:53;;;;;;;1.40;0.77;;;15.40;99.90;;;;;;4715945;30;20060;-88
2022/08/11 02:53:35;;;;;;;1.52;0.75;;;15.30;99.90;;;;;;4715184;30;20498;-89
2022/08/11 02:56:24;;;;;;;4.07;2.55;;;15.20;99.90;;;;;;4714845;30;20548;-88
2022/08/11 03:01:51;;;;;;;16.35;6.68;;;15.20;99.90;;;;;;4715228;30;20056;-87
2022/08/11 03:04:28;;;;;;;3.67;1.92;;;15.20;99.90;;;;;;4729108;30;20580;-87
2022/08/11 03:07:07;;;;;;;6.35;3.20;;;15.20;99.90;;;;;;4700256;30;20052;-88
2022/08/11 03:09:37;;;;;;;11.57;6.05;;;15.30;99.90;;;;;;4714449;30;20052;-88
2022/08/11 03:18:23;;;;;;;3.60;1.40;;;15.20;99.90;;;;;;4714934;30;20061;-88
2022/08/11 03:21:16;;;;;;;3.58;2.08;;;15.20;99.90;;;;;;4714848;30;20048;-88
2022/08/11 03:24:00;;;;;;;2.37;1.40;;;15.00;99.90;;;;;;4714628;30;20102;-88
2022/08/11 03:26:29;;;;;;;2.08;1.40;;;14.90;99.90;;;;;;4714645;30;20052;-87
2022/08/11 03:29:13;;;;;;;4.97;2.35;;;14.80;99.90;;;;;;4708093;30;20049;-87
2022/08/11 03:31:53;;;;;;;4.60;3.05;;;14.70;99.90;;;;;;4713399;30;20055;-87
2022/08/11 03:34:24;;;;;;;6.20;4.55;;;14.70;99.90;;;;;;4714386;30;20049;-87
2022/08/11 03:43:26;;;;;;;7.15;4.20;;;14.70;99.90;;;;;;4713490;30;20196;-86
2022/08/11 03:46:09;;;;;;;9.52;5.15;;;14.70;99.90;;;;;;4713424;30;20056;-86
2022/08/11 03:48:44;;;;;;;14.77;8.13;;;14.70;99.90;;;;;;4728915;30;20057;-87
2022/08/11 03:51:22;;;;;;;23.75;6.95;;;14.70;99.90;;;;;;4714307;30;20139;-87
2022/08/11 03:54:14;;;;;;;47.25;8.18;;;14.70;99.90;;;;;;4713574;30;20048;-86
2022/08/11 03:57:07;;;;;;;6.82;5.28;;;14.80;99.90;;;;;;4728538;30;20103;-86
2022/08/11 03:59:45;;;;;;;6.47;4.53;;;14.80;99.90;;;;;;4712869;30;20056;-87
2022/08/11 04:02:30;;;;;;;8.35;5.75;;;14.80;99.90;;;;;;4713441;30;20064;-87
2022/08/11 04:05:20;;;;;;;6.97;5.68;;;14.80;99.90;;;;;;4700080;30;20051;-86
2022/08/11 04:08:02;;;;;;;6.95;5.45;;;14.90;99.90;;;;;;4713620;30;20056;-87
2022/08/11 04:10:30;;;;;;;8.07;5.88;;;14.90;99.90;;;;;;4714338;30;20044;-87
2022/08/11 04:13:18;;;;;;;15.75;6.32;;;14.90;99.90;;;;;;4730655;30;20521;-88
2022/08/11 04:16:28;;;;;;;7.20;5.50;;;14.90;99.90;;;;;;4715289;30;20044;-87
2022/08/11 04:19:15;;;;;;;6.22;4.70;;;14.90;99.90;;;;;;4731367;30;20138;-87
2022/08/11 04:22:15;;;;;;;6.95;4.50;;;14.90;99.90;;;;;;4716094;30;20078;-87
2022/08/11 04:25:07;;;;;;;7.03;4.40;;;15.00;99.90;;;;;;4731405;30;20053;-88
2022/08/11 04:27:59;;;;;;;9.48;4.85;;;14.90;99.90;;;;;;4731174;30;20410;-88
2022/08/11 04:30:43;;;;;;;6.18;4.50;;;15.00;99.90;;;;;;4716433;30;20091;-87
2022/08/11 04:33:42;;;;;;;4.80;3.63;;;15.00;99.90;;;;;;4734273;30;20080;-86
2022/08/11 04:39:32;;;;;;;10.80;4.63;;;15.00;99.90;;;;;;4734193;30;20080;-87
2022/08/11 04:44:52;;;;;;;11.48;8.20;;;15.00;99.90;;;;;;4734762;30;20056;-87
2022/08/11 05:01:39;;;;;;;10.07;7.65;;;15.00;99.90;;;;;;4733859;30;20095;-86
2022/08/11 05:02:28;;;;;;;14.77;9.77;;;15.30;99.90;;;;;;4734225;30;20355;-87
2022/08/11 05:08:34;;;;;;;16.83;9.52;;;15.50;99.90;;;;;;4727569;30;20060;-87
2022/08/11 05:11:25;;;;;;;17.00;9.50;;;15.60;99.90;;;;;;4719760;30;20513;-87
2022/08/11 05:37:04;;;;;;;17.98;10.75;;;16.40;99.90;;;;;;4716248;30;20443;-87
2022/08/11 05:56:46;;;;;;;14.55;9.30;;;17.10;99.90;;;;;;4733434;30;20117;-88
2022/08/11 05:59:15;;;;;;;14.32;9.32;;;17.20;99.90;;;;;;4728609;30;20417;-88
2022/08/11 06:01:42;;;;;;;16.77;9.63;;;17.20;99.90;;;;;;4719146;30;20090;-87
2022/08/11 06:04:16;;;;;;;15.88;8.82;;;17.30;99.90;;;;;;4733941;30;20071;-87
2022/08/11 06:06:57;;;;;;;16.85;8.75;;;17.40;99.90;;;;;;4733498;30;20134;-87
2022/08/11 06:09:34;;;;;;;19.42;9.57;;;17.50;99.90;;;;;;4719109;30;20095;-87
2022/08/11 06:12:15;;;;;;;15.88;8.48;;;17.60;99.90;;;;;;4719094;30;20084;-87
2022/08/11 06:14:43;;;;;;;14.10;8.55;;;17.70;99.90;;;;;;4748322;30;20160;-87
2022/08/11 06:17:09;;;;;;;13.10;8.32;;;17.70;99.90;;;;;;4718754;30;20095;-88
2022/08/11 06:19:40;;;;;;;16.60;8.82;;;17.80;99.90;;;;;;4718389;30;20070;-88
2022/08/11 06:22:11;;;;;;;13.05;7.57;;;17.90;99.90;;;;;;4716675;30;20149;-87
2022/08/11 06:24:39;;;;;;;15.05;7.70;;;18.00;99.90;;;;;;4731012;30;20131;-88
2022/08/11 06:27:06;;;;;;;14.48;7.93;;;18.00;99.90;;;;;;4729787;30;20057;-87
2022/08/11 06:29:35;;;;;;;15.43;8.57;;;18.10;99.90;;;;;;4730523;30;20052;-87
2022/08/11 06:32:02;;;;;;;12.15;7.55;;;18.20;99.90;;;;;;4730815;30;20048;-88
2022/08/11 06:34:58;;;;;;;12.57;8.20;;;18.30;99.90;;;;;;4730021;30;20152;-89
2022/08/11 06:37:54;;;;;;;12.68;7.05;;;18.30;99.90;;;;;;4718064;30;20146;-87
2022/08/11 06:46:38;;;;;;;13.05;7.18;;;18.80;99.90;;;;;;4805373;24;20056;-87
2022/08/11 06:52:45;;;;;;;15.45;6.47;;;19.10;99.90;;;;;;4749009;30;20102;-88
2022/08/11 07:01:47;;;;;;;12.57;5.70;;;19.40;99.90;;;;;;4733017;30;20067;-87
2022/08/11 07:04:48;;;;;;;9.63;5.60;;;19.50;99.90;;;;;;4732685;30;20052;-87
2022/08/11 07:30:17;;;;;;;10.55;5.00;;;20.50;99.90;;;;;;4714024;30;20056;-90
2022/08/11 07:32:49;;;;;;;13.93;5.45;;;20.60;99.90;;;;;;4714914;30;20047;-88
2022/08/11 07:35:19;;;;;;;12.35;5.22;;;20.70;99.90;;;;;;4715214;30;20118;-87
2022/08/11 07:37:52;;;;;;;8.90;4.50;;;20.80;99.90;;;;;;4729292;30;20048;-89
2022/08/11 07:40:20;;;;;;;;;;;20.90;99.90;;;;;;4730524;30;20119;-88
2022/08/11 07:42:46;;;;;;;13.23;4.65;;;21.00;99.90;;;;;;4729177;30;19926;-88
2022/08/11 07:53:30;;;;;;;5.97;3.83;;;21.50;99.90;;;;;;4715241;30;20056;-88
2022/08/11 07:55:59;;;;;;;6.72;3.90;;;21.60;99.90;;;;;;4715568;30;20113;-88
2022/08/11 08:17:56;;;;;;;8.35;3.22;;;22.60;99.90;;;;;;4715427;30;20151;-89
2022/08/11 08:20:34;;;;;;;8.50;2.70;;;22.70;99.90;;;;;;4714384;30;20053;-88
2022/08/11 08:23:01;;;;;;;9.25;2.25;;;22.70;99.90;;;;;;4715085;30;20049;-88
2022/08/11 08:25:30;;;;;;;6.90;1.88;;;22.80;99.90;;;;;;4714340;30;20060;-88
2022/08/11 08:27:58;;;;;;;7.82;2.42;;;22.90;99.90;;;;;;4714178;30;20049;-89
2022/08/11 08:30:50;;;;;;;10.00;2.40;;;23.00;99.90;;;;;;4714649;30;20118;-89
2022/08/11 08:33:20;;;;;;;8.23;2.30;;;23.20;99.90;;;;;;4713995;30;20187;-89
2022/08/11 08:36:13;;;;;;;11.32;1.95;;;23.40;99.90;;;;;;4715053;30;20604;-89
2022/08/11 08:38:40;;;;;;;12.63;2.60;;;23.60;99.90;;;;;;4714651;30;20061;-89
2022/08/11 08:41:07;;;;;;;5.88;2.03;;;23.70;99.90;;;;;;4714583;30;20048;-90
2022/08/11 08:43:34;;;;;;;7.28;1.60;;;23.80;99.90;;;;;;4714899;30;20150;-89
2022/08/11 08:46:11;;;;;;;8.18;1.95;;;23.80;99.90;;;;;;4715093;30;20067;-90
2022/08/11 08:48:37;;;;;;;8.13;1.80;;;23.90;99.90;;;;;;4699523;30;20056;-89
2022/08/11 08:54:02;;;;;;;9.27;1.70;;;24.10;99.90;;;;;;4715147;30;20056;-90
2022/08/11 08:56:30;;;;;;;6.78;1.50;;;24.20;99.90;;;;;;4714574;30;20486;-90
2022/08/11 08:59:01;;;;;;;5.75;1.77;;;24.30;99.90;;;;;;4714408;30;20057;-89
2022/08/11 09:01:34;;;;;;;9.07;1.50;;;24.40;99.90;;;;;;4713907;30;20169;-89
2022/08/11 09:04:05;;;;;;;4.55;1.85;;;24.50;99.90;;;;;;4715100;30;20053;-89
2022/08/11 09:06:32;;;;;;;11.80;1.60;;;24.60;99.90;;;;;;4714834;30;20059;-89
2022/08/11 09:09:11;;;;;;;3.60;1.17;;;24.70;99.90;;;;;;4714706;30;20147;-89
2022/08/11 09:11:49;;;;;;;6.05;1.40;;;24.80;99.90;;;;;;4714775;30;20103;-89
2022/08/11 09:14:59;;;;;;;3.97;1.30;;;25.10;99.90;;;;;;4714537;30;20056;-89
2022/08/11 09:17:11;;;;;;;3.83;1.30;;;25.10;99.90;;;;;;4713704;30;20049;-89
2022/08/11 09:19:38;;;;;;;5.93;1.42;;;25.10;99.90;;;;;;4717427;30;20684;-90
2022/08/11 09:27:42;;;;;;;5.45;1.20;;;25.50;99.90;;;;;;4734510;30;20049;-90
2022/08/11 09:30:10;;;;;;;5.80;1.40;;;25.60;99.90;;;;;;4719758;30;20163;-89
2022/08/11 09:32:38;;;;;;;6.38;1.30;;;25.70;99.90;;;;;;4734809;30;20090;-89
2022/08/11 09:35:05;;;;;;;5.38;1.13;;;25.70;99.90;;;;;;4749701;30;20060;-90
2022/08/11 09:40:32;;;;;;;2.58;0.95;;;25.80;99.90;;;;;;4734986;30;20052;-89
2022/08/11 09:45:50;;;;;;;3.47;0.80;;;26.10;99.90;;;;;;4734693;30;20052;-90
2022/08/11 09:48:18;;;;;;;5.25;1.08;;;26.20;99.90;;;;;;4734726;30;20167;-89
2022/08/11 09:50:49;;;;;;;5.35;0.80;;;26.30;99.90;;;;;;4748540;30;20101;-88
2022/08/11 09:53:17;;;;;;;3.20;0.98;;;26.50;99.90;;;;;;4749606;30;20146;-89
2022/08/11 09:55:45;;;;;;;6.60;0.98;;;26.60;99.90;;;;;;4749023;30;20418;-89
2022/08/11 09:58:12;;;;;;;4.20;0.80;;;26.70;99.90;;;;;;4719515;30;20059;-90
2022/08/11 10:00:39;;;;;;;6.13;1.02;;;26.70;99.90;;;;;;4748941;30;20052;-90
2022/08/11 10:03:10;;;;;;;6.90;0.93;;;26.80;99.90;;;;;;4749477;30;20067;-89
2022/08/11 10:08:33;;;;;;;8.93;1.08;;;26.90;99.00;;;;;;4750676;30;20064;-89
2022/08/11 10:10:59;;;;;;;4.70;0.77;;;27.00;96.00;;;;;;4721555;30;20048;-89
2022/08/11 10:13:32;;;;;;;3.85;0.80;;;27.00;95.10;;;;;;4749274;30;20102;-90
2022/08/11 10:16:16;;;;;;;6.63;1.27;;;27.10;93.30;;;;;;4750095;30;20056;-89
2022/08/11 10:18:51;;;;;;;4.88;0.85;;;27.20;93.60;;;;;;4749048;30;20055;-89
2022/08/11 10:21:41;;;;;;;4.03;0.82;;;27.20;93.80;;;;;;4734866;30;20413;-89
2022/08/11 10:26:57;;;;;;;5.35;0.80;;;27.40;91.30;;;;;;4734280;30;20071;-89
2022/08/11 10:35:00;;;;;;;6.38;1.08;;;27.60;89.50;;;;;;4735207;30;20139;-90
2022/08/11 10:37:29;;;;;;;8.43;1.25;;;27.70;88.20;;;;;;4749199;30;20066;-90
2022/08/11 10:39:59;;;;;;;2.67;0.70;;;27.70;87.10;;;;;;4749010;30;20060;-89
2022/08/11 10:48:06;;;;;;;5.50;0.90;;;27.90;86.00;;;;;;4716099;30;20163;-88
2022/08/11 10:58:50;;;;;;;7.20;1.40;;;28.10;83.10;;;;;;4731318;30;20091;-88
2022/08/11 11:01:23;;;;;;;6.40;1.27;;;28.20;83.80;;;;;;4717025;30;20047;-89
2022/08/11 11:03:59;;;;;;;7.60;1.50;;;28.20;83.60;;;;;;4717515;30;20143;-88
2022/08/11 11:06:51;;;;;;;3.28;1.13;;;28.30;81.20;;;;;;4702275;30;20194;-89
2022/08/11 11:09:22;;;;;;;7.75;1.15;;;28.30;81.70;;;;;;4717527;30;20049;-90
2022/08/11 11:20:29;;;;;;;6.07;1.02;;;28.50;79.80;;;;;;4731470;30;20068;-89
2022/08/11 11:23:02;;;;;;;8.32;1.27;;;28.50;80.10;;;;;;4717371;30;20052;-90
2022/08/11 11:25:34;;;;;;;4.90;1.05;;;28.50;78.50;;;;;;4717051;30;20071;-89
2022/08/11 11:28:14;;;;;;;2.13;0.93;;;28.60;77.70;;;;;;4716956;30;20506;-89
2022/08/11 11:31:07;;;;;;;7.00;0.90;;;28.60;77.20;;;;;;4716792;30;20059;-91
2022/08/11 11:34:01;;;;;;;5.43;1.08;;;28.70;77.70;;;;;;4716696;30;20044;-90
2022/08/11 11:36:34;;;;;;;4.18;0.85;;;28.60;76.30;;;;;;4716461;30;20048;-89
2022/08/11 11:39:00;;;;;;;;;;;28.60;76.80;;;;;;4722113;30;20056;-89
2022/08/11 11:41:27;;;;;;;6.72;1.00;;;28.60;77.30;;;;;;4716580;30;20051;-90
2022/08/11 11:43:56;;;;;;;7.68;0.73;;;28.70;76.90;;;;;;4702601;30;20157;-90
2022/08/11 11:46:26;;;;;;;5.85;1.08;;;28.70;75.70;;;;;;4701786;30;20052;-89
2022/08/11 11:48:54;;;;;;;3.88;0.80;;;28.70;75.00;;;;;;4701735;30;20053;-90
2022/08/11 11:51:22;;;;;;;4.28;0.70;;;28.80;76.40;;;;;;4701828;30;20060;-90
2022/08/11 11:53:50;;;;;;;4.85;1.10;;;28.80;77.00;;;;;;4702573;30;20139;-87
2022/08/11 11:56:16;;;;;;;3.42;0.80;;;28.80;76.00;;;;;;4730627;30;20135;-89
2022/08/11 12:01:27;;;;;;;3.92;0.90;;;28.80;75.50;;;;;;4716524;30;20053;-90
2022/08/11 12:03:56;;;;;;;4.30;0.95;;;28.90;74.70;;;;;;4717315;30;20058;-90
2022/08/11 12:06:27;;;;;;;2.55;0.60;;;28.90;74.20;;;;;;4730893;30;20048;-90
2022/08/11 12:08:57;;;;;;;4.93;0.82;;;28.90;75.40;;;;;;4701272;30;20060;-90
2022/08/11 12:17:04;;;;;;;11.55;1.13;;;28.90;74.60;;;;;;4716397;30;20059;-91
2022/08/11 12:19:33;;;;;;;4.78;0.90;;;28.90;74.50;;;;;;4731774;30;20053;-91
2022/08/11 12:27:39;;;;;;;3.85;0.68;;;29.00;75.20;;;;;;4733959;30;20052;-93
2022/08/11 12:30:14;;;;;;;3.90;0.82;;;29.10;75.00;;;;;;4724761;30;20122;-94
2022/08/11 12:32:52;;;;;;;7.25;1.23;;;29.00;73.70;;;;;;4720137;30;20095;-96
2022/08/11 12:35:53;;;;;;;9.52;1.02;;;29.00;75.10;;;;;;4726651;30;20143;-95
2022/08/11 12:38:44;;;;;;;6.22;0.80;;;28.90;73.20;;;;;;4725017;30;20114;-96
2022/08/11 12:53:06;;;;;;;;;;;;;;;;;;;;;
2022/08/11 13:05:53;;;;;;;3.90;0.60;;;29.10;71.60;;;;;;4736400;30;20179;-87
2022/08/11 13:08:28;;;;;;;2.90;0.63;;;29.10;70.90;;;;;;4677561;30;20112;-90
2022/08/11 13:14:32;;;;;;;7.55;0.80;;;29.10;69.90;;;;;;4751866;30;20062;-91
2022/08/11 13:19:31;;;;;;;3.92;0.60;;;29.10;69.20;;;;;;4742322;30;20114;-95
2022/08/11 13:22:01;;;;;;;1.88;0.57;;;29.00;69.30;;;;;;4740190;30;20055;-90
2022/08/11 13:31:11;;;;;;;2.63;0.55;;;28.90;68.30;;;;;;4692369;30;20048;-91
2022/08/11 13:33:42;;;;;;;2.88;0.60;;;28.80;67.70;;;;;;4727932;30;20127;-89
2022/08/11 13:36:52;;;;;;;2.67;0.60;;;28.70;67.30;;;;;;4721971;30;20061;-91
2022/08/11 13:39:38;;;;;;;6.10;0.65;;;28.80;67.70;;;;;;4701390;30;20114;-90
2022/08/11 13:42:05;;;;;;;6.88;0.80;;;28.70;68.30;;;;;;4735740;30;20178;-90
2022/08/11 13:47:13;;;;;;;4.85;0.90;;;28.80;68.60;;;;;;1124299;24;20324;-88
2022/08/11 13:49:40;;;;;;;6.75;1.00;;;28.60;69.20;;;;;;4734087;30;20071;-90
2022/08/11 13:52:31;;;;;;;4.63;0.60;;;28.80;69.20;;;;;;4736137;30;20056;-90
2022/08/11 13:56:15;;;;;;;3.22;0.90;;;28.70;68.70;;;;;;4736404;30;20049;-90
2022/08/11 13:58:42;;;;;;;6.72;0.60;;;28.80;69.90;;;;;;4691594;30;20497;-91
2022/08/11 14:01:21;;;;;;;;;;;;;;;;;;;;;
2022/08/11 14:07:32;;;;;;;4.50;0.73;;;28.70;67.40;;;;;;4744631;24;20086;-89
2022/08/11 14:09:59;;;;;;;3.22;0.88;;;28.60;68.20;;;;;;4753946;30;20050;-90
2022/08/11 14:15:45;;;;;;;2.33;0.50;;;28.60;69.30;;;;;;4769006;30;20059;-91
2022/08/11 14:18:43;;;;;;;;;;;;;;;;;;;;;
2022/08/11 14:24:10;;;;;;;3.50;0.70;;;28.50;69.10;;;;;;4754203;30;20051;-89
2022/08/11 14:26:55;;;;;;;4.55;0.52;;;28.50;69.50;;;;;;4738187;30;20485;-90
2022/08/11 14:29:44;;;;;;;6.13;0.65;;;28.40;69.50;;;;;;4737678;30;20047;-90
2022/08/11 14:32:23;;;;;;;2.97;0.80;;;28.40;69.40;;;;;;4737611;30;20089;-90
2022/08/11 14:34:50;;;;;;;3.25;0.65;;;28.40;69.10;;;;;;4738157;30;20481;-90
2022/08/11 14:37:21;;;;;;;4.20;0.82;;;28.40;69.20;;;;;;4738469;30;20051;-91
2022/08/11 14:47:03;;;;;;;6.75;1.05;;;28.50;71.20;;;;;;4738156;30;20087;-91
2022/08/11 14:49:20;;;;;;;8.48;1.40;;;28.40;72.20;;;;;;4752995;30;20062;-90
2022/08/11 14:51:37;;;;;;;8.32;0.80;;;28.30;72.10;;;;;;4747346;30;20051;-89
2022/08/11 14:57:49;;;;;;;6.97;0.73;;;28.30;71.80;;;;;;4752815;30;20080;-91
2022/08/11 15:00:47;;;;;;;7.00;0.70;;;28.20;71.80;;;;;;4714079;30;20162;-91
2022/08/11 15:03:57;;;;;;;8.65;1.20;;;28.20;71.90;;;;;;4754041;30;20051;-89
2022/08/11 15:10:16;;;;;;;4.18;0.80;;;28.20;71.90;;;;;;4768131;30;20100;-91
2022/08/11 15:13:33;;;;;;;4.60;0.80;;;28.10;72.10;;;;;;4752091;30;20398;-91
2022/08/11 15:19:30;;;;;;;6.85;0.88;;;28.10;72.20;;;;;;4768461;30;20067;-91
2022/08/11 15:46:20;;;;;;;5.97;0.80;;;28.00;74.10;;;;;;4786356;24;20086;-91
2022/08/11 15:49:17;;;;;;;5.85;1.00;;;28.00;74.30;;;;;;4737264;30;20051;-91
2022/08/11 15:56:12;;;;;;;5.40;1.08;;;28.00;74.20;;;;;;4738948;30;20075;-90
2022/08/11 16:09:39;;;;;;;;;;;;;;;;;;;;;
2022/08/11 16:19:50;;;;;;;4.78;0.95;;;27.70;74.60;;;;;;4755649;24;20544;-91
2022/08/11 16:22:46;;;;;;;4.95;0.80;;;27.80;75.70;;;;;;4701105;30;20066;-93
2022/08/11 16:26:23;;;;;;;4.47;1.08;;;27.80;76.40;;;;;;4752130;30;20055;-91
2022/08/11 16:32:15;;;;;;;4.10;1.00;;;27.90;76.30;;;;;;4783816;24;20485;-92
2022/08/11 16:41:04;;;;;;;6.32;0.98;;;28.20;76.10;;;;;;4745976;30;20060;-93
2022/08/11 16:47:07;;;;;;;3.65;1.00;;;29.20;74.60;;;;;;4751715;30;20088;-93
2022/08/11 16:50:34;;;;;;;5.10;0.88;;;29.70;73.50;;;;;;4739394;30;20065;-92
2022/08/11 16:54:14;;;;;;;4.45;1.00;;;30.10;73.10;;;;;;4695367;30;20108;-90
2022/08/11 16:59:13;;;;;;;7.97;1.17;;;30.60;71.90;;;;;;4719860;30;20426;-92
2022/08/11 17:00:00;;;;;;;3.88;0.80;;;30.80;71.10;;;;;;4762739;30;20058;-95
2022/08/11 17:14:12;;;;;;;5.25;0.90;;;31.70;69.60;;;;;;4747192;30;20045;-96
2022/08/11 17:16:39;;;;;;;3.30;1.05;;;31.90;69.50;;;;;;4724219;30;20511;-95
2022/08/11 17:19:12;;;;;;;6.25;1.10;;;32.00;69.00;;;;;;4719531;30;20506;-95
2022/08/11 17:23:45;;;;;;;8.25;1.17;;;32.10;69.90;;;;;;4733710;30;20056;-93
2022/08/11 17:24:30;;;;;;;7.68;0.93;;;32.20;69.40;;;;;;4736456;30;20419;-95
2022/08/11 17:26:57;;;;;;;2.63;0.95;;;32.40;68.90;;;;;;4722384;30;20104;-90
2022/08/11 17:29:31;;;;;;;6.43;0.77;;;32.40;68.30;;;;;;4721287;30;20257;-90
2022/08/11 17:37:40;;;;;;;5.93;1.05;;;32.50;67.50;;;;;;4753723;30;20048;-91
2022/08/11 17:40:10;;;;;;;6.63;1.17;;;32.50;67.30;;;;;;4743301;30;20502;-92
2022/08/11 17:48:24;;;;;;;9.77;1.08;;;32.40;67.00;;;;;;4746907;30;20060;-91
2022/08/11 17:48:35;;;;;;;3.70;0.85;;;32.30;66.50;;;;;;4736220;30;20498;-91
2022/08/11 17:51:06;;;;;;;6.83;0.90;;;32.40;67.00;;;;;;4739038;30;20089;-92
2022/08/11 18:04:54;;;;;;;7.00;1.10;;;31.70;66.60;;;;;;4742409;30;20068;-92
